Time;durP1;ratioP1;P1;durP2;ratioP2;P2;SDS_P1;SDS_P2;PMS_P1;PMS_P2;Temp;Humidity;BMP_temperature;BMP_pressure;BME280_temperature;BME280_humidity;BME280_pressure;Samples;Min_cycle;Max_cycle;Signal;HPM_P1;HPM_P2
2022/04/03 00:00:22;;;;;;;3.47;2.37;;;;;;;;;;5053830;28;20169;-70
2022/04/03 00:02:47;;;;;;;5.60;2.43;;;;;;;;;;5052949;28;20253;-68
2022/04/03 00:05:12;;;;;;;3.20;2.80;;;;;;;;;;5048773;28;20181;-70
2022/04/03 00:07:37;;;;;;;3.43;2.40;;;;;;;;;;5050674;28;20272;-70
2022/04/03 00:10:03;;;;;;;6.37;2.73;;;;;;;;;;5048694;28;20697;-70
2022/04/03 00:12:28;;;;;;;3.43;2.40;;;;;;;;;;5041307;28;20282;-70
2022/04/03 00:14:53;;;;;;;7.13;2.83;;;;;;;;;;5027768;28;20204;-69
2022/04/03 00:17:18;;;;;;;3.93;3.10;;;;;;;;;;5026898;28;20209;-69
2022/04/03 00:19:44;;;;;;;6.10;2.87;;;;;;;;;;5032604;28;20231;-70
2022/04/03 00:22:10;;;;;;;4.83;2.60;;;;;;;;;;5025441;28;21372;-69
2022/04/03 00:24:36;;;;;;;3.70;2.30;;;;;;;;;;5044298;28;20651;-70
2022/04/03 00:27:01;;;;;;;3.27;2.27;;;;;;;;;;5027216;28;20181;-69
2022/04/03 00:29:26;;;;;;;6.27;2.90;;;;;;;;;;5035466;28;20574;-70
2022/04/03 00:31:51;;;;;;;6.23;2.93;;;;;;;;;;5050333;28;20713;-68
2022/04/03 00:34:17;;;;;;;3.53;2.87;;;;;;;;;;5047728;28;20182;-68
2022/04/03 00:36:42;;;;;;;5.37;2.50;;;;;;;;;;5043210;28;20211;-68
2022/04/03 00:39:07;;;;;;;5.00;2.93;;;;;;;;;;5039314;28;20283;-68
2022/04/03 00:41:32;;;;;;;4.47;2.97;;;;;;;;;;5038834;28;20602;-68
2022/04/03 00:43:58;;;;;;;5.87;3.80;;;;;;;;;;5048965;28;20186;-70
2022/04/03 00:46:26;;;;;;;4.40;2.70;;;;;;;;;;5051235;28;20205;-71
2022/04/03 00:48:52;;;;;;;5.30;3.03;;;;;;;;;;5044554;28;20667;-68
2022/04/03 00:51:18;;;;;;;4.73;3.63;;;;;;;;;;5050378;28;20209;-68
2022/04/03 00:53:43;;;;;;;3.90;2.70;;;;;;;;;;5048428;28;20256;-68
2022/04/03 00:56:08;;;;;;;3.57;2.50;;;;;;;;;;5050202;28;20201;-68
2022/04/03 00:58:35;;;;;;;5.27;3.33;;;;;;;;;;5049738;28;20571;-69
2022/04/03 01:01:00;;;;;;;5.07;2.70;;;;;;;;;;5051203;28;20181;-68
2022/04/03 01:03:25;;;;;;;3.20;2.70;;;;;;;;;;5048161;28;20178;-68
2022/04/03 01:05:50;;;;;;;4.33;2.90;;;;;;;;;;5050141;28;20188;-70
2022/04/03 01:08:17;;;;;;;4.30;2.93;;;;;;;;;;5051917;28;20197;-70
2022/04/03 01:10:43;;;;;;;3.33;2.93;;;;;;;;;;5049901;28;20181;-70
2022/04/03 01:13:10;;;;;;;4.23;3.23;;;;;;;;;;5049319;28;20190;-70
2022/04/03 01:15:35;;;;;;;6.40;2.83;;;;;;;;;;5049644;28;20173;-70
2022/04/03 01:18:00;;;;;;;3.20;2.80;;;;;;;;;;5050584;28;20697;-70
2022/04/03 01:20:25;;;;;;;4.90;2.43;;;;;;;;;;5050011;28;21311;-70
2022/04/03 01:22:50;;;;;;;3.87;3.10;;;;;;;;;;5048534;28;20218;-70
2022/04/03 01:25:16;;;;;;;4.67;3.40;;;;;;;;;;5049119;28;20185;-69
2022/04/03 01:27:41;;;;;;;6.87;2.70;;;;;;;;;;5050664;28;20210;-70
2022/04/03 01:30:07;;;;;;;3.23;2.93;;;;;;;;;;5049053;28;20182;-70
2022/04/03 01:32:33;;;;;;;3.77;2.80;;;;;;;;;;5049140;28;20264;-70
2022/04/03 01:34:58;;;;;;;5.10;3.17;;;;;;;;;;5048347;28;20265;-70
2022/04/03 01:37:23;;;;;;;4.77;2.93;;;;;;;;;;5046665;28;20324;-71
2022/04/03 01:39:49;;;;;;;4.87;3.10;;;;;;;;;;5048592;28;20190;-70
2022/04/03 01:42:14;;;;;;;3.53;2.93;;;;;;;;;;5041706;28;20230;-70
2022/04/03 01:44:39;;;;;;;5.77;3.30;;;;;;;;;;5045852;28;20174;-69
2022/04/03 01:47:04;;;;;;;3.80;2.70;;;;;;;;;;5039939;28;20189;-70
2022/04/03 01:49:29;;;;;;;4.67;3.40;;;;;;;;;;5045148;28;20243;-67
2022/04/03 01:51:54;;;;;;;3.73;3.07;;;;;;;;;;5050144;28;20595;-70
2022/04/03 01:54:20;;;;;;;5.50;3.67;;;;;;;;;;5048840;28;20181;-68
2022/04/03 01:56:45;;;;;;;4.73;3.40;;;;;;;;;;5047835;28;20182;-68
2022/04/03 01:59:10;;;;;;;3.70;2.93;;;;;;;;;;5048102;28;20545;-68
2022/04/03 02:01:36;;;;;;;4.30;3.37;;;;;;;;;;5049012;28;20216;-69
2022/04/03 02:04:02;;;;;;;4.23;3.00;;;;;;;;;;5048321;28;20196;-70
2022/04/03 02:06:28;;;;;;;4.77;3.30;;;;;;;;;;5050516;28;20265;-70
2022/04/03 02:08:53;;;;;;;5.97;3.37;;;;;;;;;;5049810;28;20697;-69
2022/04/03 02:11:18;;;;;;;8.33;3.43;;;;;;;;;;5049089;28;20193;-70
2022/04/03 02:13:43;;;;;;;6.57;4.07;;;;;;;;;;5047563;28;20177;-70
2022/04/03 02:16:11;;;;;;;3.67;3.27;;;;;;;;;;5034022;28;20193;-69
2022/04/03 02:18:37;;;;;;;4.93;3.30;;;;;;;;;;5045550;28;20585;-70
2022/04/03 02:21:02;;;;;;;4.10;3.30;;;;;;;;;;5043473;28;20186;-70
2022/04/03 02:23:27;;;;;;;3.90;3.50;;;;;;;;;;5042959;28;20173;-68
2022/04/03 02:25:53;;;;;;;4.63;3.37;;;;;;;;;;5043578;28;20312;-69
2022/04/03 02:28:18;;;;;;;4.50;3.80;;;;;;;;;;5048391;28;20292;-69
2022/04/03 02:30:43;;;;;;;3.53;3.20;;;;;;;;;;5044740;28;20633;-69
2022/04/03 02:33:09;;;;;;;7.23;4.40;;;;;;;;;;5047106;28;20228;-69
2022/04/03 02:35:34;;;;;;;5.83;3.70;;;;;;;;;;5046933;28;20170;-69
2022/04/03 02:37:59;;;;;;;5.67;3.47;;;;;;;;;;5050784;28;20714;-69
2022/04/03 02:40:24;;;;;;;4.00;3.50;;;;;;;;;;5047563;28;20175;-70
2022/04/03 02:42:52;;;;;;;5.23;3.60;;;;;;;;;;5050013;28;20582;-70
2022/04/03 02:45:17;;;;;;;7.80;3.90;;;;;;;;;;5049581;28;20566;-70
2022/04/03 02:47:50;;;;;;;7.53;3.40;;;;;;;;;;5046831;28;20232;-70
2022/04/03 02:50:16;;;;;;;6.00;3.70;;;;;;;;;;5050151;28;20186;-70
2022/04/03 02:52:42;;;;;;;7.97;5.30;;;;;;;;;;5045554;28;20194;-70
2022/04/03 02:55:07;;;;;;;5.30;3.63;;;;;;;;;;5052554;28;20186;-70
2022/04/03 02:57:32;;;;;;;5.27;3.57;;;;;;;;;;5053520;28;20215;-70
2022/04/03 02:59:58;;;;;;;5.23;3.80;;;;;;;;;;5049715;28;20178;-70
2022/04/03 03:02:23;;;;;;;5.83;4.03;;;;;;;;;;5053582;28;20181;-70
2022/04/03 03:04:48;;;;;;;5.40;3.67;;;;;;;;;;5052141;28;20230;-70
2022/04/03 03:07:14;;;;;;;6.80;3.80;;;;;;;;;;5052155;28;20391;-70
2022/04/03 03:09:39;;;;;;;6.33;3.60;;;;;;;;;;5053223;28;20200;-70
2022/04/03 03:12:06;;;;;;;8.80;4.07;;;;;;;;;;5051493;28;20178;-70
2022/04/03 03:14:31;;;;;;;6.20;4.10;;;;;;;;;;5048577;28;20527;-70
2022/04/03 03:16:56;;;;;;;7.83;4.10;;;;;;;;;;5052859;28;20251;-70
2022/04/03 03:19:21;;;;;;;6.80;4.20;;;;;;;;;;5049624;28;20170;-70
2022/04/03 03:21:47;;;;;;;5.53;4.20;;;;;;;;;;5052720;28;20253;-70
2022/04/03 03:24:12;;;;;;;7.03;3.80;;;;;;;;;;5051536;28;20247;-70
2022/04/03 03:26:37;;;;;;;7.47;4.50;;;;;;;;;;5052193;28;20553;-70
2022/04/03 03:29:03;;;;;;;6.53;4.23;;;;;;;;;;5047818;28;20205;-70
2022/04/03 03:31:28;;;;;;;6.03;4.03;;;;;;;;;;5051609;28;20194;-70
2022/04/03 03:33:54;;;;;;;6.73;4.00;;;;;;;;;;5047404;28;20240;-70
2022/04/03 03:36:19;;;;;;;6.20;4.03;;;;;;;;;;5040171;28;20182;-70
2022/04/03 03:38:44;;;;;;;4.70;3.80;;;;;;;;;;5048538;28;20217;-70
2022/04/03 03:41:09;;;;;;;5.97;4.00;;;;;;;;;;5051520;28;20204;-69
2022/04/03 03:43:35;;;;;;;6.10;4.43;;;;;;;;;;5051319;28;20173;-70
2022/04/03 03:46:00;;;;;;;5.00;3.87;;;;;;;;;;5052224;28;20643;-69
2022/04/03 03:48:25;;;;;;;6.67;4.40;;;;;;;;;;5043786;28;20594;-69
2022/04/03 03:50:51;;;;;;;5.50;4.33;;;;;;;;;;5051650;28;20184;-69
2022/04/03 03:53:17;;;;;;;7.77;4.57;;;;;;;;;;5051062;28;20196;-69
2022/04/03 03:55:42;;;;;;;7.23;4.40;;;;;;;;;;5049197;28;20533;-69
2022/04/03 03:58:08;;;;;;;5.10;3.97;;;;;;;;;;5038025;28;20214;-70
2022/04/03 04:00:34;;;;;;;5.67;3.93;;;;;;;;;;5050573;28;20178;-69
2022/04/03 04:02:59;;;;;;;5.20;3.70;;;;;;;;;;5050299;28;20169;-69
2022/04/03 04:05:24;;;;;;;6.50;4.30;;;;;;;;;;5051596;28;20176;-69
2022/04/03 04:07:50;;;;;;;6.57;4.23;;;;;;;;;;5052154;28;20571;-69
2022/04/03 04:10:16;;;;;;;5.33;4.07;;;;;;;;;;5050732;28;20191;-69
2022/04/03 04:12:42;;;;;;;6.13;4.00;;;;;;;;;;5047735;28;20647;-69
2022/04/03 04:15:08;;;;;;;9.30;5.47;;;;;;;;;;5051390;28;20181;-69
2022/04/03 04:17:44;;;;;;;7.23;4.40;;;;;;;;;;5051513;28;20209;-69
2022/04/03 04:20:13;;;;;;;5.23;4.07;;;;;;;;;;5044731;28;20174;-69
2022/04/03 04:22:39;;;;;;;6.23;4.83;;;;;;;;;;5049263;28;20165;-69
2022/04/03 04:25:05;;;;;;;6.07;5.10;;;;;;;;;;5051537;28;20176;-69
2022/04/03 04:27:30;;;;;;;8.53;4.97;;;;;;;;;;5049125;28;20287;-69
2022/04/03 04:29:55;;;;;;;5.60;4.43;;;;;;;;;;5050511;28;20667;-69
2022/04/03 04:32:21;;;;;;;11.27;4.23;;;;;;;;;;5051250;28;20181;-69
2022/04/03 04:34:47;;;;;;;4.67;4.13;;;;;;;;;;5050126;28;20239;-69
2022/04/03 04:37:12;;;;;;;6.83;5.13;;;;;;;;;;5049242;28;20288;-69
2022/04/03 04:39:37;;;;;;;6.57;5.17;;;;;;;;;;5050661;28;20181;-69
2022/04/03 04:42:03;;;;;;;10.07;5.27;;;;;;;;;;5067562;28;20192;-69
2022/04/03 04:44:28;;;;;;;8.60;5.07;;;;;;;;;;5049033;28;20188;-69
2022/04/03 04:46:53;;;;;;;6.70;5.23;;;;;;;;;;5051309;28;20182;-69
2022/04/03 04:49:18;;;;;;;8.90;5.63;;;;;;;;;;5050037;28;20190;-69
2022/04/03 04:51:44;;;;;;;7.70;4.97;;;;;;;;;;5050977;28;20188;-69
2022/04/03 04:54:09;;;;;;;8.30;5.27;;;;;;;;;;5049457;28;20604;-69
2022/04/03 04:56:35;;;;;;;9.43;5.27;;;;;;;;;;5050859;28;20190;-69
2022/04/03 04:59:01;;;;;;;10.53;5.90;;;;;;;;;;5050806;28;20339;-69
2022/04/03 05:01:26;;;;;;;8.13;5.50;;;;;;;;;;5036434;28;20268;-69
2022/04/03 05:03:51;;;;;;;10.20;6.27;;;;;;;;;;5044086;28;20177;-69
2022/04/03 05:06:16;;;;;;;7.93;5.67;;;;;;;;;;5050876;28;20174;-69
2022/04/03 05:08:42;;;;;;;10.00;6.30;;;;;;;;;;5049117;28;20197;-69
2022/04/03 05:11:07;;;;;;;10.30;6.67;;;;;;;;;;5044701;28;20190;-69
2022/04/03 05:13:32;;;;;;;7.67;6.30;;;;;;;;;;5048896;28;20657;-69
2022/04/03 05:15:58;;;;;;;9.33;6.67;;;;;;;;;;5044282;28;20244;-69
2022/04/03 05:18:23;;;;;;;9.23;5.73;;;;;;;;;;5050342;28;20216;-69
2022/04/03 05:20:49;;;;;;;9.87;6.57;;;;;;;;;;5048093;28;20727;-69
2022/04/03 05:23:14;;;;;;;10.33;6.30;;;;;;;;;;5048885;28;20527;-69
2022/04/03 05:25:39;;;;;;;9.53;6.67;;;;;;;;;;5049347;28;20182;-70
2022/04/03 05:28:05;;;;;;;10.30;6.63;;;;;;;;;;5052141;28;20266;-69
2022/04/03 05:30:30;;;;;;;8.13;6.30;;;;;;;;;;5048907;28;20185;-70
2022/04/03 05:32:55;;;;;;;7.03;6.33;;;;;;;;;;5048095;28;20182;-69
2022/04/03 05:35:20;;;;;;;9.47;6.47;;;;;;;;;;5040433;28;20182;-69
2022/04/03 05:37:46;;;;;;;12.60;6.27;;;;;;;;;;5056774;28;20208;-69
2022/04/03 05:40:12;;;;;;;11.03;6.77;;;;;;;;;;5051118;28;20166;-69
2022/04/03 05:42:37;;;;;;;9.77;7.33;;;;;;;;;;5051495;28;20444;-69
2022/04/03 05:45:04;;;;;;;16.57;9.77;;;;;;;;;;5051213;28;20260;-69
2022/04/03 05:47:29;;;;;;;10.57;7.20;;;;;;;;;;5046948;28;20217;-69
2022/04/03 05:49:54;;;;;;;11.87;7.73;;;;;;;;;;5049521;28;20620;-69
2022/04/03 05:52:20;;;;;;;15.70;9.60;;;;;;;;;;5047671;28;20185;-69
2022/04/03 05:54:45;;;;;;;14.27;9.07;;;;;;;;;;5049304;28;20223;-69
2022/04/03 05:57:10;;;;;;;12.17;8.30;;;;;;;;;;5051166;28;20228;-69
2022/04/03 05:59:36;;;;;;;12.73;7.40;;;;;;;;;;5048596;28;20174;-69
2022/04/03 06:02:01;;;;;;;10.87;7.10;;;;;;;;;;5044812;28;20170;-69
2022/04/03 06:04:26;;;;;;;9.47;7.37;;;;;;;;;;5035982;28;20666;-69
2022/04/03 06:06:52;;;;;;;9.67;7.47;;;;;;;;;;5037513;28;20553;-69
2022/04/03 06:09:17;;;;;;;9.63;7.37;;;;;;;;;;5044807;28;20555;-69
2022/04/03 06:11:42;;;;;;;10.00;6.30;;;;;;;;;;5048630;28;20611;-69
2022/04/03 06:14:08;;;;;;;9.43;7.07;;;;;;;;;;5043959;28;20200;-69
2022/04/03 06:16:33;;;;;;;11.77;7.13;;;;;;;;;;5047805;28;20265;-69
2022/04/03 06:18:58;;;;;;;10.70;6.43;;;;;;;;;;5043783;28;20679;-69
2022/04/03 06:21:23;;;;;;;10.13;6.23;;;;;;;;;;5049543;28;20177;-69
2022/04/03 06:23:49;;;;;;;10.13;6.07;;;;;;;;;;5050843;28;20597;-69
2022/04/03 06:26:14;;;;;;;7.93;5.40;;;;;;;;;;5046749;28;20178;-69
2022/04/03 06:28:39;;;;;;;9.10;4.53;;;;;;;;;;5045126;28;20207;-69
2022/04/03 06:31:04;;;;;;;5.60;4.50;;;;;;;;;;5049268;28;20279;-69
2022/04/03 06:33:29;;;;;;;6.87;4.80;;;;;;;;;;5047428;28;20193;-69
2022/04/03 06:35:55;;;;;;;8.77;4.97;;;;;;;;;;5048193;28;20182;-70
2022/04/03 06:38:20;;;;;;;6.80;4.57;;;;;;;;;;5049084;28;20213;-70
2022/04/03 06:40:48;;;;;;;6.23;3.73;;;;;;;;;;5049305;28;20177;-69
2022/04/03 06:43:15;;;;;;;5.93;4.27;;;;;;;;;;5047962;28;20173;-70
2022/04/03 06:45:40;;;;;;;5.03;4.07;;;;;;;;;;5048167;28;20189;-70
2022/04/03 06:48:05;;;;;;;6.80;4.20;;;;;;;;;;5049654;28;20193;-68
2022/04/03 06:50:30;;;;;;;7.73;4.27;;;;;;;;;;5049453;28;20213;-68
2022/04/03 06:52:56;;;;;;;4.67;3.70;;;;;;;;;;5044906;28;20273;-70
2022/04/03 06:55:21;;;;;;;4.27;3.87;;;;;;;;;;5049180;28;20186;-70
2022/04/03 06:57:46;;;;;;;4.00;3.63;;;;;;;;;;5048422;28;20284;-70
2022/04/03 07:00:13;;;;;;;6.77;4.40;;;;;;;;;;5047686;28;20185;-70
2022/04/03 07:02:38;;;;;;;5.93;3.80;;;;;;;;;;5036866;28;20221;-69
2022/04/03 07:05:04;;;;;;;5.57;4.00;;;;;;;;;;5041487;28;20221;-69
2022/04/03 07:07:29;;;;;;;4.17;3.70;;;;;;;;;;5042118;28;20245;-69
2022/04/03 07:09:55;;;;;;;5.93;4.70;;;;;;;;;;5045504;28;20472;-69
2022/04/03 07:12:20;;;;;;;4.20;3.60;;;;;;;;;;5046649;28;20276;-69
2022/04/03 07:14:45;;;;;;;4.40;3.97;;;;;;;;;;5047423;28;20190;-71
2022/04/03 07:17:10;;;;;;;9.17;4.57;;;;;;;;;;5049144;28;20293;-69
2022/04/03 07:19:36;;;;;;;5.63;3.80;;;;;;;;;;5046568;28;20224;-69
2022/04/03 07:22:01;;;;;;;5.23;3.57;;;;;;;;;;5048218;28;20549;-69
2022/04/03 07:24:26;;;;;;;4.90;3.57;;;;;;;;;;5048403;28;20543;-69
2022/04/03 07:26:52;;;;;;;5.43;3.57;;;;;;;;;;5051640;28;20189;-69
2022/04/03 07:29:17;;;;;;;3.80;2.97;;;;;;;;;;5052111;28;20205;-69
2022/04/03 07:31:42;;;;;;;5.17;3.67;;;;;;;;;;5052536;28;20196;-69
2022/04/03 07:34:07;;;;;;;3.80;2.90;;;;;;;;;;5052281;28;20216;-69
2022/04/03 07:36:33;;;;;;;3.30;2.87;;;;;;;;;;5048331;28;20528;-69
2022/04/03 07:38:58;;;;;;;4.60;3.10;;;;;;;;;;5047212;28;20216;-69
2022/04/03 07:41:23;;;;;;;4.47;3.33;;;;;;;;;;5048072;28;20178;-69
2022/04/03 07:43:48;;;;;;;5.70;3.07;;;;;;;;;;5045763;28;20181;-69
2022/04/03 07:46:16;;;;;;;3.83;2.47;;;;;;;;;;5052103;28;20193;-69
2022/04/03 07:48:41;;;;;;;3.63;2.77;;;;;;;;;;5050922;28;20201;-69
2022/04/03 07:51:06;;;;;;;5.60;2.93;;;;;;;;;;5053365;28;20638;-69
2022/04/03 07:53:31;;;;;;;3.63;3.27;;;;;;;;;;5051990;28;20181;-69
2022/04/03 07:55:57;;;;;;;3.63;2.40;;;;;;;;;;5053492;28;20691;-69
2022/04/03 07:58:22;;;;;;;3.20;2.40;;;;;;;;;;5053262;28;20213;-69
2022/04/03 08:00:47;;;;;;;2.30;2.10;;;;;;;;;;5049273;28;20711;-69
2022/04/03 08:03:12;;;;;;;2.73;2.10;;;;;;;;;;5032380;28;20184;-69
2022/04/03 08:05:38;;;;;;;4.00;1.87;;;;;;;;;;5033286;28;20180;-69
2022/04/03 08:08:03;;;;;;;6.07;1.90;;;;;;;;;;5039060;28;20198;-69
2022/04/03 08:10:29;;;;;;;7.40;2.10;;;;;;;;;;5034741;28;20208;-71
2022/04/03 08:12:54;;;;;;;2.50;2.00;;;;;;;;;;5048745;28;20636;-69
2022/04/03 08:15:20;;;;;;;2.53;2.17;;;;;;;;;;5049789;28;20666;-69
2022/04/03 08:17:45;;;;;;;2.13;1.37;;;;;;;;;;5048521;28;20263;-68
2022/04/03 08:20:17;;;;;;;3.77;1.37;;;;;;;;;;5050280;28;20231;-71
2022/04/03 08:22:43;;;;;;;2.77;1.60;;;;;;;;;;5051231;28;20257;-70
2022/04/03 08:25:09;;;;;;;2.63;1.20;;;;;;;;;;5037877;28;20269;-70
2022/04/03 08:27:44;;;;;;;3.83;1.20;;;;;;;;;;5033804;28;20555;-70
2022/04/03 08:30:10;;;;;;;2.10;1.10;;;;;;;;;;5051473;28;20185;-68
2022/04/03 08:32:36;;;;;;;3.80;1.20;;;;;;;;;;5052443;28;20188;-70
2022/04/03 08:35:01;;;;;;;2.70;1.20;;;;;;;;;;5048047;28;20269;-70
2022/04/03 08:37:28;;;;;;;1.90;1.60;;;;;;;;;;5050864;28;20259;-70
2022/04/03 08:39:53;;;;;;;1.20;1.07;;;;;;;;;;5046198;28;20189;-70
2022/04/03 08:42:18;;;;;;;2.17;1.10;;;;;;;;;;5051801;28;20182;-69
2022/04/03 08:44:43;;;;;;;1.33;1.07;;;;;;;;;;5049712;28;20204;-69
2022/04/03 08:47:09;;;;;;;3.40;1.20;;;;;;;;;;5051978;28;20230;-69
2022/04/03 08:49:36;;;;;;;5.60;1.40;;;;;;;;;;5049408;28;20196;-69
2022/04/03 08:52:02;;;;;;;2.20;1.30;;;;;;;;;;5051204;28;20178;-69
2022/04/03 08:54:28;;;;;;;2.67;1.40;;;;;;;;;;5047990;28;20174;-68
2022/04/03 08:56:54;;;;;;;1.73;1.43;;;;;;;;;;5046928;28;20174;-70
2022/04/03 08:59:19;;;;;;;4.10;1.30;;;;;;;;;;5045941;28;20587;-70
2022/04/03 09:01:44;;;;;;;2.37;2.03;;;;;;;;;;5044685;28;20315;-70
2022/04/03 09:04:09;;;;;;;3.40;1.60;;;;;;;;;;5041927;28;20190;-69
2022/04/03 09:06:34;;;;;;;3.23;1.60;;;;;;;;;;5042589;28;20169;-69
2022/04/03 09:09:01;;;;;;;2.07;1.40;;;;;;;;;;5051673;28;20201;-69
2022/04/03 09:11:29;;;;;;;1.57;1.20;;;;;;;;;;5047133;28;20667;-69
2022/04/03 09:13:54;;;;;;;2.23;1.50;;;;;;;;;;5047794;28;20261;-70
2022/04/03 09:16:36;;;;;;;2.00;1.23;;;;;;;;;;5047968;28;20295;-69
2022/04/03 09:19:01;;;;;;;4.20;2.27;;;;;;;;;;5047626;28;20201;-69
2022/04/03 09:21:27;;;;;;;2.77;1.73;;;;;;;;;;5047899;28;20184;-70
2022/04/03 09:23:59;;;;;;;2.23;1.10;;;;;;;;;;5048435;28;20177;-70
2022/04/03 09:26:24;;;;;;;2.47;0.97;;;;;;;;;;5050326;28;20312;-69
2022/04/03 09:28:49;;;;;;;1.53;0.73;;;;;;;;;;5047238;28;21795;-69
2022/04/03 09:31:24;;;;;;;4.43;1.20;;;;;;;;;;5050764;28;20204;-69
2022/04/03 09:34:05;;;;;;;2.13;0.70;;;;;;;;;;5044535;28;20185;-69
2022/04/03 09:36:34;;;;;;;2.43;0.90;;;;;;;;;;5050840;28;20189;-69
2022/04/03 09:39:09;;;;;;;3.57;1.20;;;;;;;;;;5047439;28;20218;-70
2022/04/03 09:41:35;;;;;;;3.10;1.23;;;;;;;;;;5048831;28;20177;-70
2022/04/03 09:44:13;;;;;;;4.70;1.00;;;;;;;;;;5044826;28;20181;-69
2022/04/03 09:46:39;;;;;;;1.33;0.90;;;;;;;;;;5042395;28;20205;-69
2022/04/03 09:49:20;;;;;;;3.13;1.10;;;;;;;;;;5048584;28;20663;-70
2022/04/03 09:51:45;;;;;;;2.50;1.50;;;;;;;;;;5041135;28;20246;-69
2022/04/03 09:54:16;;;;;;;3.20;1.73;;;;;;;;;;5050540;28;20647;-69
2022/04/03 09:56:41;;;;;;;4.00;1.50;;;;;;;;;;5051142;28;20620;-69
2022/04/03 09:59:07;;;;;;;4.43;1.70;;;;;;;;;;5049967;28;20229;-69
2022/04/03 10:01:34;;;;;;;3.83;2.07;;;;;;;;;;5050736;28;20537;-69
2022/04/03 10:04:00;;;;;;;5.73;2.07;;;;;;;;;;5049107;28;20181;-70
2022/04/03 10:06:26;;;;;;;3.43;2.40;;;;;;;;;;5043155;28;20174;-69
2022/04/03 10:08:51;;;;;;;2.47;1.80;;;;;;;;;;5043114;28;20690;-68
2022/04/03 10:11:16;;;;;;;2.43;1.80;;;;;;;;;;5044073;28;20173;-69
2022/04/03 10:13:42;;;;;;;2.93;1.87;;;;;;;;;;5048426;28;20266;-68
2022/04/03 10:16:08;;;;;;;2.10;1.70;;;;;;;;;;5048812;28;20655;-69
2022/04/03 10:18:34;;;;;;;1.43;1.33;;;;;;;;;;5046948;28;20205;-69
2022/04/03 10:21:00;;;;;;;2.20;1.27;;;;;;;;;;5044968;28;20177;-69
2022/04/03 10:23:27;;;;;;;1.23;0.90;;;;;;;;;;5048951;28;20177;-68
2022/04/03 10:25:54;;;;;;;3.17;1.37;;;;;;;;;;5047949;28;20651;-69
2022/04/03 10:28:20;;;;;;;1.73;1.07;;;;;;;;;;5039921;28;20229;-69
2022/04/03 10:30:56;;;;;;;1.77;0.87;;;;;;;;;;5036376;28;20213;-68
2022/04/03 10:33:23;;;;;;;1.47;0.70;;;;;;;;;;5049689;28;20204;-69
2022/04/03 10:35:49;;;;;;;1.63;0.80;;;;;;;;;;5047641;28;20209;-69
2022/04/03 10:38:14;;;;;;;1.60;0.60;;;;;;;;;;5043080;28;20266;-69
2022/04/03 10:40:54;;;;;;;2.20;1.23;;;;;;;;;;5045987;28;20651;-69
2022/04/03 10:43:25;;;;;;;0.77;0.50;;;;;;;;;;5041745;28;20177;-68
2022/04/03 10:45:51;;;;;;;2.07;0.70;;;;;;;;;;5050238;28;20185;-68
2022/04/03 10:48:19;;;;;;;1.77;0.70;;;;;;;;;;5046296;28;20271;-71
2022/04/03 10:50:58;;;;;;;1.33;0.60;;;;;;;;;;5046975;28;20288;-68
2022/04/03 10:53:25;;;;;;;2.87;0.80;;;;;;;;;;5049016;28;20217;-70
2022/04/03 10:55:57;;;;;;;0.77;0.53;;;;;;;;;;5051384;28;20243;-70
2022/04/03 10:58:22;;;;;;;2.63;0.60;;;;;;;;;;5050663;28;20201;-68
2022/04/03 11:00:48;;;;;;;1.43;0.77;;;;;;;;;;5051496;28;20178;-70
2022/04/03 11:03:13;;;;;;;0.50;0.40;;;;;;;;;;5050250;28;20175;-70
2022/04/03 11:05:38;;;;;;;0.30;0.30;;;;;;;;;;5045601;28;20265;-69
2022/04/03 11:08:03;;;;;;;1.27;0.52;;;;;;;;;;5050521;28;20846;-70
2022/04/03 11:10:57;;;;;;;2.30;0.43;;;;;;;;;;5047164;28;20451;-69
2022/04/03 11:13:43;;;;;;;1.58;0.50;;;;;;;;;;5049902;28;20552;-69
2022/04/03 11:16:09;;;;;;;2.28;0.88;;;;;;;;;;5045228;28;20197;-68
2022/04/03 11:18:34;;;;;;;1.13;0.60;;;;;;;;;;5046044;28;20213;-71
2022/04/03 11:21:16;;;;;;;1.85;0.77;;;;;;;;;;5046364;28;20173;-70
2022/04/03 11:23:45;;;;;;;2.22;0.55;;;;;;;;;;5046792;28;20181;-68
2022/04/03 11:26:10;;;;;;;1.13;0.90;;;;;;;;;;5050828;28;20769;-70
2022/04/03 11:28:36;;;;;;;1.20;0.82;;;;;;;;;;5047736;28;20281;-70
2022/04/03 11:31:02;;;;;;;2.35;1.02;;;;;;;;;;5044833;28;20208;-69
2022/04/03 11:33:28;;;;;;;0.70;0.50;;;;;;;;;;5045278;28;20697;-70
2022/04/03 11:35:53;;;;;;;1.58;0.70;;;;;;;;;;5052503;28;20166;-71
2022/04/03 11:38:19;;;;;;;1.40;0.70;;;;;;;;;;5048479;28;20219;-71
2022/04/03 11:40:46;;;;;;;1.60;0.80;;;;;;;;;;5049326;28;20226;-70
2022/04/03 11:43:16;;;;;;;2.15;0.90;;;;;;;;;;5049409;28;20184;-70
2022/04/03 11:46:07;;;;;;;1.85;0.90;;;;;;;;;;5039885;28;20189;-70
2022/04/03 11:48:45;;;;;;;0.80;0.47;;;;;;;;;;5045147;28;20202;-71
2022/04/03 11:51:12;;;;;;;3.67;0.73;;;;;;;;;;5044710;28;20532;-70
2022/04/03 11:53:37;;;;;;;3.10;1.13;;;;;;;;;;5051895;28;20613;-70
2022/04/03 11:56:13;;;;;;;2.23;1.13;;;;;;;;;;5051992;28;20241;-70
2022/04/03 11:58:42;;;;;;;0.93;0.70;;;;;;;;;;5052957;28;20279;-70
2022/04/03 12:01:07;;;;;;;1.27;0.73;;;;;;;;;;5051177;28;20185;-70
2022/04/03 12:03:34;;;;;;;1.33;1.00;;;;;;;;;;5044696;28;20174;-70
2022/04/03 12:06:12;;;;;;;1.67;0.70;;;;;;;;;;5047453;28;20177;-71
2022/04/03 12:08:38;;;;;;;4.37;0.80;;;;;;;;;;5043714;28;20228;-68
2022/04/03 12:11:19;;;;;;;1.53;0.80;;;;;;;;;;5049724;28;20616;-70
2022/04/03 12:13:44;;;;;;;1.63;1.17;;;;;;;;;;5049669;28;20189;-70
2022/04/03 12:16:14;;;;;;;1.13;0.70;;;;;;;;;;5045919;28;20556;-69
2022/04/03 12:18:48;;;;;;;3.10;0.90;;;;;;;;;;5049094;28;20208;-70
2022/04/03 12:21:13;;;;;;;1.67;0.60;;;;;;;;;;5048775;28;20188;-70
2022/04/03 12:23:58;;;;;;;2.50;1.20;;;;;;;;;;5047014;28;20177;-71
2022/04/03 12:26:24;;;;;;;1.53;1.03;;;;;;;;;;5050065;28;20209;-70
2022/04/03 12:28:49;;;;;;;1.30;1.20;;;;;;;;;;5049797;28;20217;-72
2022/04/03 12:31:14;;;;;;;1.63;1.00;;;;;;;;;;5051343;28;20685;-71
2022/04/03 12:33:40;;;;;;;1.47;1.10;;;;;;;;;;5031990;28;20188;-68
2022/04/03 12:36:05;;;;;;;1.33;1.00;;;;;;;;;;5050666;28;20185;-71
2022/04/03 12:38:30;;;;;;;1.10;1.00;;;;;;;;;;5049393;28;20209;-70
2022/04/03 12:40:58;;;;;;;2.83;0.90;;;;;;;;;;5047722;28;20170;-71
2022/04/03 12:43:23;;;;;;;1.33;0.87;;;;;;;;;;5047813;28;20202;-70
2022/04/03 12:45:55;;;;;;;0.70;0.70;;;;;;;;;;5050821;28;20201;-70
2022/04/03 12:48:21;;;;;;;2.20;0.80;;;;;;;;;;5048911;28;20627;-68
2022/04/03 12:50:47;;;;;;;0.90;0.70;;;;;;;;;;5050235;28;20249;-71
2022/04/03 12:53:14;;;;;;;0.87;0.70;;;;;;;;;;5047694;28;20204;-69
2022/04/03 12:55:49;;;;;;;0.50;0.50;;;;;;;;;;5048842;28;20318;-71
2022/04/03 12:58:25;;;;;;;2.40;0.67;;;;;;;;;;5042562;28;20734;-69
2022/04/03 13:00:56;;;;;;;1.33;1.03;;;;;;;;;;5046078;28;20551;-69
2022/04/03 13:03:22;;;;;;;1.13;0.90;;;;;;;;;;5044101;28;20281;-69
2022/04/03 13:05:48;;;;;;;2.17;1.03;;;;;;;;;;5048964;28;20243;-71
2022/04/03 13:08:13;;;;;;;2.20;1.00;;;;;;;;;;5048202;28;20198;-68
2022/04/03 13:10:51;;;;;;;1.30;1.10;;;;;;;;;;5047830;28;20177;-69
2022/04/03 13:13:23;;;;;;;1.13;0.90;;;;;;;;;;5046470;28;20181;-69
2022/04/03 13:15:49;;;;;;;1.93;1.50;;;;;;;;;;5049155;28;20224;-70
2022/04/03 13:18:14;;;;;;;3.53;1.33;;;;;;;;;;5045331;28;20198;-70
2022/04/03 13:20:39;;;;;;;1.50;1.10;;;;;;;;;;5050636;28;20257;-70
2022/04/03 13:23:04;;;;;;;1.63;1.20;;;;;;;;;;5044194;28;20184;-70
2022/04/03 13:25:30;;;;;;;2.57;1.77;;;;;;;;;;5051040;28;20162;-71
2022/04/03 13:27:55;;;;;;;1.90;1.27;;;;;;;;;;5045161;28;20193;-69
2022/04/03 13:30:20;;;;;;;2.33;1.30;;;;;;;;;;5049652;28;20616;-71
2022/04/03 13:32:45;;;;;;;1.37;0.93;;;;;;;;;;5046478;28;20235;-70
2022/04/03 13:35:10;;;;;;;2.60;0.67;;;;;;;;;;5033638;28;20268;-70
2022/04/03 13:37:36;;;;;;;2.10;0.80;;;;;;;;;;5055060;28;20205;-70
2022/04/03 13:40:01;;;;;;;0.83;0.83;;;;;;;;;;5050421;28;20174;-70
2022/04/03 13:42:27;;;;;;;1.50;1.03;;;;;;;;;;5040777;28;20189;-69
2022/04/03 13:44:52;;;;;;;1.93;0.90;;;;;;;;;;5050538;28;20181;-70
2022/04/03 13:47:17;;;;;;;1.70;1.07;;;;;;;;;;5047902;28;20620;-70
2022/04/03 13:49:42;;;;;;;1.80;1.17;;;;;;;;;;5045701;28;20212;-70
2022/04/03 13:52:09;;;;;;;3.03;0.90;;;;;;;;;;5049548;28;20205;-70
2022/04/03 13:54:34;;;;;;;1.37;1.00;;;;;;;;;;5046713;28;20866;-70
2022/04/03 13:56:59;;;;;;;2.23;0.80;;;;;;;;;;5048530;28;20265;-70
2022/04/03 13:59:24;;;;;;;1.43;0.90;;;;;;;;;;5047973;28;20201;-71
2022/04/03 14:01:49;;;;;;;0.77;0.70;;;;;;;;;;5047498;28;20549;-70
2022/04/03 14:04:14;;;;;;;0.83;0.60;;;;;;;;;;5045109;28;20177;-70
2022/04/03 14:06:40;;;;;;;1.83;0.70;;;;;;;;;;5044551;28;20178;-69
2022/04/03 14:09:05;;;;;;;1.00;0.70;;;;;;;;;;5045011;28;20244;-70
2022/04/03 14:11:31;;;;;;;2.43;0.70;;;;;;;;;;5045709;28;20186;-71
2022/04/03 14:13:56;;;;;;;0.80;0.60;;;;;;;;;;5041090;28;20186;-68
2022/04/03 14:16:21;;;;;;;2.00;0.97;;;;;;;;;;5044962;28;20611;-69
2022/04/03 14:18:48;;;;;;;3.43;1.40;;;;;;;;;;5046861;28;20217;-70
2022/04/03 14:21:14;;;;;;;1.35;0.70;;;;;;;;;;5048456;28;20173;-68
2022/04/03 14:23:39;;;;;;;4.80;1.70;;;;;;;;;;5048938;28;20367;-69
2022/04/03 14:26:05;;;;;;;2.03;1.17;;;;;;;;;;5049277;28;20170;-69
2022/04/03 14:28:31;;;;;;;2.00;1.55;;;;;;;;;;5050750;28;20205;-70
2022/04/03 14:30:57;;;;;;;3.15;2.17;;;;;;;;;;5054810;28;20187;-70
2022/04/03 14:33:22;;;;;;;1.85;0.90;;;;;;;;;;5053161;28;20600;-70
2022/04/03 14:35:47;;;;;;;1.50;0.90;;;;;;;;;;5050297;28;20204;-70
2022/04/03 14:38:13;;;;;;;3.33;0.68;;;;;;;;;;5038796;28;20201;-70